createdAt,value
2022-12-25T00:00:58.474Z,35.60
2022-12-25T00:03:49.276Z,28.70
2022-12-25T00:06:19.366Z,28.50
2022-12-25T00:08:53.476Z,31.00
2022-12-25T00:11:20.639Z,30.40
2022-12-25T00:13:48.491Z,28.90
2022-12-25T00:16:20.997Z,29.00
2022-12-25T00:18:49.474Z,29.20
2022-12-25T00:21:17.158Z,30.00
2022-12-25T00:23:44.137Z,31.40
2022-12-25T00:26:14.776Z,35.90
2022-12-25T00:28:41.519Z,36.60
2022-12-25T00:31:15.236Z,36.50
2022-12-25T00:33:45.972Z,46.50
2022-12-25T00:36:15.439Z,51.10
2022-12-25T00:38:43.268Z,49.00
2022-12-25T00:41:12.704Z,51.90
2022-12-25T00:43:41.559Z,43.80
2022-12-25T00:46:10.980Z,38.80
2022-12-25T00:48:38.635Z,40.80
2022-12-25T00:51:08.210Z,42.40
2022-12-25T00:53:34.821Z,38.60
2022-12-25T00:56:04.294Z,39.70
2022-12-25T00:58:32.682Z,43.10
2022-12-25T01:01:02.245Z,40.50
2022-12-25T01:03:29.227Z,38.20
2022-12-25T01:06:01.708Z,51.00
2022-12-25T01:08:31.364Z,52.60
2022-12-25T01:11:14.773Z,53.90
2022-12-25T01:13:42.265Z,53.50
2022-12-25T01:16:11.045Z,53.60
2022-12-25T01:18:38.567Z,55.60
2022-12-25T01:21:15.483Z,52.90
2022-12-25T01:23:43.317Z,49.10
2022-12-25T01:26:13.209Z,49.40
2022-12-25T01:28:40.747Z,54.70
2022-12-25T01:31:12.442Z,54.90
2022-12-25T01:33:40.442Z,49.10
2022-12-25T01:36:20.207Z,42.30
2022-12-25T01:38:49.044Z,44.90
2022-12-25T01:41:27.825Z,46.20
2022-12-25T01:44:27.391Z,49.40
2022-12-25T01:46:54.375Z,51.40
2022-12-25T01:52:53.934Z,53.50
2022-12-25T01:55:22.420Z,49.50
2022-12-25T01:57:54.154Z,44.40
2022-12-25T02:00:20.741Z,42.90
2022-12-25T02:02:48.532Z,41.90
2022-12-25T02:05:29.412Z,44.70
2022-12-25T02:08:00.190Z,41.80
2022-12-25T02:10:27.471Z,41.10
2022-12-25T02:12:54.407Z,41.50
2022-12-25T02:15:26.395Z,49.50
2022-12-25T02:18:11.563Z,53.10
2022-12-25T02:21:11.379Z,56.40
2022-12-25T02:24:02.645Z,48.20
2022-12-25T02:26:38.416Z,41.80
2022-12-25T02:29:25.121Z,34.70
2022-12-25T02:32:18.291Z,36.60
2022-12-25T02:34:57.900Z,35.10
2022-12-25T02:37:35.461Z,33.60
2022-12-25T02:40:28.926Z,29.70
2022-12-25T02:43:22.509Z,34.20
2022-12-25T02:46:27.455Z,32.80
2022-12-25T02:49:16.843Z,22.50
2022-12-25T02:52:12.956Z,23.40
2022-12-25T02:55:06.235Z,30.30
2022-12-25T02:57:57.719Z,28.70
2022-12-25T03:00:44.072Z,29.70
2022-12-25T03:03:36.107Z,25.40
2022-12-25T03:06:22.874Z,24.50
2022-12-25T03:09:22.297Z,24.40
2022-12-25T03:11:56.825Z,18.80
2022-12-25T03:14:42.293Z,21.60
2022-12-25T03:17:09.370Z,18.30
2022-12-25T03:19:56.219Z,16.10
2022-12-25T03:22:46.951Z,17.00
2022-12-25T03:25:33.771Z,21.30
2022-12-25T03:28:04.322Z,21.30
2022-12-25T03:31:13.838Z,23.10
2022-12-25T03:34:12.162Z,22.10
2022-12-25T03:37:16.549Z,21.40
2022-12-25T03:40:43.422Z,50.70
2022-12-25T03:43:44.091Z,59.60
2022-12-25T03:46:46.979Z,46.90
2022-12-25T03:50:10.658Z,37.40
2022-12-25T03:52:58.168Z,19.40
2022-12-25T03:55:47.280Z,18.90
2022-12-25T03:59:25.078Z,15.20
2022-12-25T04:02:10.320Z,14.70
2022-12-25T04:04:59.992Z,14.00
2022-12-25T04:07:45.333Z,20.90
2022-12-25T04:10:31.193Z,22.70
2022-12-25T04:13:16.649Z,16.80
2022-12-25T04:16:01.812Z,16.80
2022-12-25T04:18:47.657Z,16.70
2022-12-25T04:21:33.178Z,16.90
2022-12-25T04:24:18.979Z,21.00
2022-12-25T04:27:04.743Z,22.40
2022-12-25T04:29:51.012Z,21.60
2022-12-25T04:32:36.524Z,19.80
2022-12-25T04:35:22.421Z,22.90
2022-12-25T04:37:49.031Z,25.70
2022-12-25T04:40:17.496Z,27.10
2022-12-25T04:42:44.114Z,27.80
2022-12-25T04:45:13.789Z,28.80
2022-12-25T04:47:40.561Z,26.00
2022-12-25T04:50:07.646Z,28.50
2022-12-25T04:52:36.740Z,32.00
2022-12-25T04:55:09.422Z,32.10
2022-12-25T04:57:36.886Z,33.30
2022-12-25T05:00:05.349Z,36.60
2022-12-25T05:02:32.502Z,34.20
2022-12-25T05:04:59.424Z,36.10
2022-12-25T05:07:26.257Z,41.20
2022-12-25T05:09:53.474Z,39.10
2022-12-25T05:12:20.414Z,35.90
2022-12-25T05:14:46.982Z,38.50
2022-12-25T05:17:13.661Z,39.60
2022-12-25T05:19:40.359Z,39.30
2022-12-25T05:22:07.049Z,43.10
2022-12-25T05:24:33.638Z,41.70
2022-12-25T05:27:00.444Z,40.30
2022-12-25T05:29:28.558Z,39.70
2022-12-25T05:31:55.132Z,39.10
2022-12-25T05:34:22.048Z,39.40
2022-12-25T05:36:50.156Z,38.60
2022-12-25T05:39:16.814Z,38.80
2022-12-25T05:41:43.455Z,43.80
2022-12-25T05:44:10.347Z,45.20
2022-12-25T05:46:37.010Z,41.60
2022-12-25T05:49:05.100Z,40.90
2022-12-25T05:51:32.366Z,43.90
2022-12-25T05:53:59.198Z,42.70
2022-12-25T05:56:28.313Z,45.20
2022-12-25T05:58:55.251Z,47.90
2022-12-25T06:01:24.313Z,48.40
2022-12-25T06:03:52.394Z,53.20
2022-12-25T06:06:20.350Z,51.80
2022-12-25T06:08:49.073Z,53.70
2022-12-25T06:11:16.516Z,55.40
2022-12-25T06:16:26.843Z,46.60
2022-12-25T06:18:56.292Z,44.10
2022-12-25T06:21:23.164Z,53.50
2022-12-25T06:23:50.789Z,51.00
2022-12-25T06:26:20.312Z,56.80
2022-12-25T06:28:48.030Z,59.30
2022-12-25T06:31:19.169Z,60.40
2022-12-25T06:33:47.463Z,63.00
2022-12-25T06:36:22.666Z,61.20
2022-12-25T06:38:50.566Z,61.90
2022-12-25T06:45:26.628Z,69.80
2022-12-25T06:47:53.370Z,68.50
2022-12-25T07:38:54.019Z,38.10
2022-12-25T07:41:25.024Z,35.40
2022-12-25T07:43:57.501Z,35.30
2022-12-25T09:23:02.027Z,30.70
2022-12-25T09:25:29.609Z,32.30
2022-12-25T09:36:10.964Z,30.70
2022-12-25T09:55:28.083Z,37.80
2022-12-25T10:01:12.718Z,35.30
2022-12-25T10:08:29.390Z,35.40
2022-12-25T10:11:18.347Z,34.90
2022-12-25T10:13:58.635Z,38.20
2022-12-25T10:17:05.197Z,36.70
2022-12-25T10:20:26.438Z,38.10
2022-12-25T10:23:25.101Z,34.60
2022-12-25T10:29:19.179Z,33.50
2022-12-25T10:31:49.625Z,36.00
2022-12-25T10:34:17.759Z,34.70
2022-12-25T10:40:00.358Z,37.50
2022-12-25T10:51:58.408Z,27.90
2022-12-25T10:54:29.873Z,24.60
2022-12-25T10:57:09.701Z,24.80
2022-12-25T11:02:41.059Z,26.10
2022-12-25T11:05:25.548Z,25.50
2022-12-25T11:48:49.720Z,17.60
2022-12-25T11:51:19.453Z,12.30
2022-12-25T11:53:49.538Z,9.80
2022-12-25T11:56:17.975Z,8.10
2022-12-25T11:58:55.055Z,5.80
2022-12-25T12:15:40.127Z,7.70
2022-12-25T12:18:28.790Z,7.00
2022-12-25T12:21:05.178Z,9.20
2022-12-25T12:23:49.088Z,8.60
2022-12-25T12:26:22.120Z,9.20
2022-12-25T12:28:52.787Z,8.20
2022-12-25T12:31:22.089Z,8.00
2022-12-25T12:33:59.199Z,8.00
2022-12-25T13:34:30.979Z,7.00
2022-12-25T13:37:06.362Z,7.30
2022-12-25T13:39:36.587Z,7.70
2022-12-25T13:42:06.541Z,8.10
2022-12-25T14:22:24.506Z,9.70
2022-12-25T14:24:52.016Z,10.90
2022-12-25T14:27:25.067Z,10.50
2022-12-25T14:29:55.619Z,10.60
2022-12-25T14:32:25.481Z,10.10
2022-12-25T14:34:59.647Z,11.00
2022-12-25T14:37:30.232Z,10.80
2022-12-25T14:40:04.394Z,12.40
2022-12-25T14:42:34.471Z,13.00
2022-12-25T14:45:24.261Z,12.70
2022-12-25T14:47:53.219Z,23.50
2022-12-25T14:50:27.540Z,23.40
2022-12-25T14:52:55.119Z,43.90
2022-12-25T14:55:28.142Z,38.80
2022-12-25T14:58:03.877Z,22.80
2022-12-25T15:00:38.222Z,19.70
2022-12-25T15:03:16.873Z,23.80
2022-12-25T15:05:43.874Z,35.10
2022-12-25T15:08:10.516Z,39.80
2022-12-25T15:13:26.264Z,38.10
2022-12-25T15:16:00.920Z,47.30
2022-12-25T15:18:40.825Z,32.80
2022-12-25T15:21:15.757Z,22.60
2022-12-25T15:23:42.501Z,20.90
2022-12-25T15:26:13.049Z,14.90
2022-12-25T15:28:40.129Z,31.60
2022-12-25T15:31:25.632Z,54.30
2022-12-25T15:33:53.742Z,53.80
2022-12-25T15:36:20.891Z,49.80
2022-12-25T15:38:47.816Z,20.10
2022-12-25T15:41:56.692Z,10.90
2022-12-25T15:44:24.197Z,21.60
2022-12-25T15:46:51.541Z,16.40
2022-12-25T15:49:18.627Z,24.80
2022-12-25T15:51:45.605Z,22.80
2022-12-25T15:54:12.730Z,108.30
2022-12-25T15:56:51.105Z,195.40
2022-12-25T15:59:19.337Z,105.20
2022-12-25T16:01:53.593Z,56.00
2022-12-25T16:04:21.578Z,40.90
2022-12-25T16:06:49.437Z,46.30
2022-12-25T16:09:17.239Z,67.70
2022-12-25T16:11:43.933Z,28.30
2022-12-25T16:14:10.705Z,31.30
2022-12-25T16:16:37.658Z,15.10
2022-12-25T16:19:04.727Z,12.70
2022-12-25T16:21:42.008Z,10.30
2022-12-25T16:24:08.886Z,20.20
2022-12-25T16:26:40.024Z,36.60
2022-12-25T16:29:07.878Z,38.80
2022-12-25T16:31:59.889Z,42.20
2022-12-25T16:34:26.631Z,54.80
2022-12-25T16:36:53.480Z,66.30
2022-12-25T16:39:20.048Z,75.10
2022-12-25T16:41:46.771Z,68.20
2022-12-25T16:44:14.174Z,48.00
2022-12-25T16:46:40.961Z,36.20
2022-12-25T16:49:08.154Z,35.90
2022-12-25T16:51:35.158Z,40.80
2022-12-25T16:54:01.897Z,59.90
2022-12-25T16:56:30.122Z,97.50
2022-12-25T16:58:58.570Z,127.30
2022-12-25T17:01:25.489Z,61.00
2022-12-25T17:03:52.417Z,57.80
2022-12-25T17:06:26.069Z,63.60
2022-12-25T17:08:56.487Z,79.50
2022-12-25T17:11:26.722Z,86.00
2022-12-25T17:13:53.810Z,76.40
2022-12-25T17:16:24.809Z,74.60
2022-12-25T17:19:12.359Z,79.10
2022-12-25T17:21:38.930Z,105.50
2022-12-25T17:24:06.041Z,111.20
2022-12-25T17:26:33.073Z,86.50
2022-12-25T17:29:00.172Z,88.20
2022-12-25T17:31:27.785Z,78.10
2022-12-25T17:33:55.228Z,69.20
2022-12-25T17:36:22.943Z,139.90
2022-12-25T17:38:49.622Z,290.20
2022-12-25T17:41:18.018Z,200.20
2022-12-25T17:43:46.115Z,124.90
2022-12-25T17:46:22.382Z,95.90
2022-12-25T17:48:50.255Z,157.00
2022-12-25T17:51:20.773Z,100.80
2022-12-25T17:53:49.824Z,89.50
2022-12-25T17:56:17.438Z,100.50
2022-12-25T17:58:48.713Z,100.40
2022-12-25T18:01:16.303Z,67.10
2022-12-25T18:03:44.425Z,76.30
2022-12-25T18:06:14.086Z,31.50
2022-12-25T18:08:42.067Z,27.80
2022-12-25T18:11:17.131Z,46.60
2022-12-25T18:13:48.062Z,50.80
2022-12-25T18:16:15.611Z,45.80
2022-12-25T18:18:47.984Z,61.80
2022-12-25T18:21:19.475Z,111.70
2022-12-25T18:23:46.091Z,153.70
2022-12-25T18:26:13.183Z,212.90
2022-12-25T18:28:41.831Z,214.60
2022-12-25T18:31:10.677Z,103.00
2022-12-25T18:33:37.350Z,59.50
2022-12-25T18:36:05.702Z,60.90
2022-12-25T18:38:32.478Z,58.60
2022-12-25T18:40:59.302Z,103.80
2022-12-25T18:43:52.779Z,100.00
2022-12-25T18:46:13.543Z,111.80
2022-12-25T18:48:40.556Z,110.80
2022-12-25T18:51:12.066Z,121.80
2022-12-25T18:53:41.490Z,75.10
2022-12-25T18:56:15.027Z,75.50
2022-12-25T18:58:42.751Z,64.30
2022-12-25T19:01:24.816Z,90.60
2022-12-25T19:03:53.867Z,104.20
2022-12-25T19:06:28.581Z,107.50
2022-12-25T19:08:58.948Z,100.40
2022-12-25T19:11:26.703Z,96.50
2022-12-25T19:13:53.460Z,81.00
2022-12-25T19:16:21.188Z,118.20
2022-12-25T19:18:48.127Z,105.40
2022-12-25T19:21:16.282Z,130.80
2022-12-25T19:23:43.890Z,113.60
2022-12-25T19:26:12.711Z,100.20
2022-12-25T19:28:39.621Z,95.40
2022-12-25T19:31:08.337Z,96.40
2022-12-25T19:33:40.159Z,117.20
2022-12-25T19:36:16.210Z,115.70
2022-12-25T19:38:46.449Z,89.40
2022-12-25T19:41:16.041Z,74.40
2022-12-25T19:43:47.594Z,62.10
2022-12-25T19:46:24.426Z,70.00
2022-12-25T19:48:52.464Z,53.90
2022-12-25T19:51:26.429Z,69.00
2022-12-25T19:53:58.044Z,71.20
2022-12-25T19:56:26.843Z,86.60
2022-12-25T19:58:54.722Z,90.00
2022-12-25T20:01:23.850Z,86.10
2022-12-25T20:28:02.708Z,61.70
2022-12-25T20:30:29.826Z,50.10
2022-12-25T20:36:37.281Z,23.00
2022-12-25T20:39:08.868Z,19.00
2022-12-25T20:46:05.223Z,29.50
2022-12-25T20:48:56.712Z,26.20
2022-12-25T20:51:26.197Z,22.80
2022-12-25T20:53:55.097Z,22.30
2022-12-25T20:56:27.741Z,24.70
2022-12-25T20:58:59.032Z,22.90
2022-12-25T21:01:28.678Z,24.40
2022-12-25T21:03:57.254Z,25.20
2022-12-25T21:29:59.527Z,40.80
2022-12-25T21:33:01.959Z,40.70
2022-12-25T22:19:35.785Z,55.60
2022-12-25T22:22:04.045Z,58.30
2022-12-25T22:24:32.932Z,61.70
2022-12-25T22:27:00.323Z,59.10
